createdAt,value
2018-09-04T00:01:27.231Z,84.25
2018-09-04T00:03:55.926Z,84.17
2018-09-04T00:06:24.637Z,84.26
2018-09-04T00:08:53.258Z,84.89
2018-09-04T00:11:21.948Z,84.82
2018-09-04T00:13:50.655Z,85.08
2018-09-04T00:16:19.909Z,85.44
2018-09-04T00:18:48.592Z,85.35
2018-09-04T00:21:17.888Z,85.58
2018-09-04T00:23:46.543Z,85.75
2018-09-04T00:26:15.199Z,86.12
2018-09-04T00:28:43.873Z,86.47
2018-09-04T00:31:12.553Z,86.87
2018-09-04T00:33:41.238Z,87.03
2018-09-04T00:36:10.054Z,87.23
2018-09-04T00:38:38.777Z,87.58
2018-09-04T00:41:07.747Z,87.74
2018-09-04T00:43:36.341Z,88.18
2018-09-04T00:46:06.041Z,88.47
2018-09-04T00:48:34.729Z,88.55
2018-09-04T00:51:03.389Z,88.28
2018-09-04T00:53:32.230Z,88.05
2018-09-04T00:56:00.909Z,88.62
2018-09-04T00:58:29.730Z,87.98
2018-09-04T01:00:58.480Z,87.87
2018-09-04T01:03:27.301Z,88.10
2018-09-04T01:05:56.088Z,88.14
2018-09-04T01:08:24.884Z,87.72
2018-09-04T01:10:54.057Z,87.43
2018-09-04T01:13:22.746Z,87.45
2018-09-04T01:15:51.458Z,87.32
2018-09-04T01:18:20.058Z,87.25
2018-09-04T01:20:48.704Z,87.17
2018-09-04T01:23:17.453Z,87.02
2018-09-04T01:25:46.329Z,86.68
2018-09-04T01:28:15.089Z,87.15
2018-09-04T01:30:43.697Z,87.31
2018-09-04T01:33:12.400Z,87.75
2018-09-04T01:35:41.121Z,88.14
2018-09-04T01:38:09.835Z,87.79
2018-09-04T01:40:38.658Z,88.02
2018-09-04T01:43:08.204Z,88.81
2018-09-04T01:45:36.993Z,88.62
2018-09-04T01:48:05.809Z,89.66
2018-09-04T01:50:34.473Z,89.24
2018-09-04T01:53:03.215Z,89.81
2018-09-04T01:55:31.910Z,89.94
2018-09-04T01:58:00.671Z,90.30
2018-09-04T02:00:30.422Z,90.45
2018-09-04T02:02:59.065Z,90.87
2018-09-04T02:05:28.266Z,91.62
2018-09-04T02:07:57.326Z,91.97
2018-09-04T02:10:26.146Z,92.15
2018-09-04T02:12:55.376Z,92.21
2018-09-04T02:15:24.173Z,91.91
2018-09-04T02:17:52.918Z,92.26
2018-09-04T02:20:22.698Z,92.12
2018-09-04T02:22:51.461Z,92.66
2018-09-04T02:25:20.290Z,93.10
2018-09-04T02:27:49.673Z,93.41
2018-09-04T02:30:18.403Z,93.26
2018-09-04T02:32:47.062Z,93.47
2018-09-04T02:35:15.842Z,93.53
2018-09-04T02:37:45.016Z,93.75
2018-09-04T02:40:13.777Z,94.44
2018-09-04T02:42:42.567Z,95.17
2018-09-04T02:45:11.331Z,95.08
2018-09-04T02:47:40.020Z,95.07
2018-09-04T02:50:09.056Z,95.13
2018-09-04T02:52:37.836Z,96.25
2018-09-04T02:55:07.025Z,96.94
2018-09-04T02:57:36.395Z,96.99
2018-09-04T03:00:05.186Z,97.59
2018-09-04T03:02:34.769Z,97.96
2018-09-04T03:05:03.405Z,98.57
2018-09-04T03:07:32.129Z,98.55
2018-09-04T03:10:00.909Z,99.11
2018-09-04T03:12:29.634Z,98.95
2018-09-04T03:15:01.265Z,99.08
2018-09-04T03:17:29.893Z,99.41
2018-09-04T03:19:59.398Z,98.93
2018-09-04T03:22:29.089Z,99.24
2018-09-04T03:24:59.458Z,98.99
2018-09-04T03:27:28.186Z,98.66
2018-09-04T03:29:56.897Z,98.93
2018-09-04T03:32:25.710Z,98.75
2018-09-04T03:34:54.332Z,99.05
2018-09-04T03:37:23.018Z,98.94
2018-09-04T03:39:51.984Z,98.63
2018-09-04T03:42:20.588Z,98.93
2018-09-04T03:44:49.443Z,99.33
2018-09-04T03:47:18.216Z,98.71
2018-09-04T03:49:47.050Z,98.41
2018-09-04T03:52:15.704Z,99.01
2018-09-04T03:54:44.244Z,99.27
2018-09-04T03:57:15.805Z,98.81
2018-09-04T03:59:44.558Z,99.00
2018-09-04T04:02:13.339Z,98.90
2018-09-04T04:04:41.959Z,99.20
2018-09-04T04:07:10.562Z,99.35
2018-09-04T04:09:39.380Z,99.28
2018-09-04T04:12:08.124Z,99.09
2018-09-04T04:14:37.845Z,98.98
2018-09-04T04:17:06.889Z,98.78
2018-09-04T04:19:35.610Z,99.22
2018-09-04T04:22:04.323Z,99.39
2018-09-04T04:24:33.001Z,99.25
2018-09-04T04:27:02.937Z,99.27
2018-09-04T04:29:32.059Z,99.04
2018-09-04T04:32:02.061Z,98.81
2018-09-04T04:34:31.462Z,98.86
2018-09-04T04:37:00.310Z,98.83
2018-09-04T04:39:29.364Z,98.46
2018-09-04T04:41:58.461Z,98.51
2018-09-04T04:44:27.250Z,98.21
2018-09-04T04:46:57.121Z,97.52
2018-09-04T04:49:26.787Z,97.86
2018-09-04T04:51:55.675Z,97.36
2018-09-04T04:54:24.334Z,96.86
2018-09-04T04:56:53.271Z,96.67
2018-09-04T04:59:21.856Z,96.48
2018-09-04T05:01:51.524Z,95.92
2018-09-04T05:04:24.048Z,95.81
2018-09-04T05:06:52.785Z,96.16
2018-09-04T05:09:21.461Z,96.09
2018-09-04T05:11:50.165Z,95.73
2018-09-04T05:14:19.003Z,95.18
2018-09-04T05:16:47.798Z,95.08
2018-09-04T05:19:17.451Z,94.42
2018-09-04T05:21:46.124Z,94.52
2018-09-04T05:24:14.853Z,93.92
2018-09-04T05:26:43.467Z,93.80
2018-09-04T05:29:12.272Z,93.46
2018-09-04T05:31:47.010Z,92.73
2018-09-04T05:34:15.904Z,92.63
2018-09-04T05:36:44.561Z,92.46
2018-09-04T05:39:13.195Z,91.99
2018-09-04T05:41:42.853Z,92.05
2018-09-04T05:44:11.729Z,91.83
2018-09-04T05:46:44.096Z,90.97
2018-09-04T05:49:15.367Z,90.65
2018-09-04T05:51:45.046Z,90.94
2018-09-04T05:54:13.861Z,90.29
2018-09-04T05:56:45.274Z,89.63
2018-09-04T05:59:14.001Z,90.59
2018-09-04T06:01:43.733Z,89.81
2018-09-04T06:04:12.559Z,88.43
2018-09-04T06:06:41.261Z,88.11
2018-09-04T06:09:10.151Z,86.95
2018-09-04T06:11:38.970Z,88.00
2018-09-04T06:14:07.701Z,87.24
2018-09-04T06:16:36.502Z,87.78
2018-09-04T06:19:05.402Z,87.14
2018-09-04T06:21:34.210Z,85.99
2018-09-04T06:24:03.052Z,85.25
2018-09-04T06:26:31.726Z,83.74
2018-09-04T06:29:00.465Z,82.90
2018-09-04T06:31:29.143Z,82.37
2018-09-04T06:33:57.972Z,81.48
2018-09-04T06:36:27.733Z,81.21
2018-09-04T06:38:56.304Z,79.62
2018-09-04T06:41:25.925Z,78.41
2018-09-04T06:43:56.001Z,76.72
2018-09-04T06:46:24.893Z,76.34
2018-09-04T06:48:53.514Z,76.18
2018-09-04T06:51:22.301Z,75.01
2018-09-04T06:53:50.963Z,74.08
2018-09-04T06:56:19.637Z,73.73
2018-09-04T06:58:48.553Z,72.79
2018-09-04T07:01:17.144Z,74.22
2018-09-04T07:03:45.764Z,71.91
2018-09-04T07:06:14.634Z,72.53
2018-09-04T07:08:43.317Z,70.99
2018-09-04T07:11:11.982Z,71.05
2018-09-04T07:13:40.839Z,71.63
2018-09-04T07:16:09.503Z,71.56
2018-09-04T07:18:38.465Z,69.86
2018-09-04T07:21:07.081Z,68.56
2018-09-04T07:23:35.836Z,69.47
2018-09-04T07:26:05.047Z,69.51
2018-09-04T07:28:33.814Z,68.10
2018-09-04T07:31:02.757Z,67.46
2018-09-04T07:33:31.388Z,67.91
2018-09-04T07:36:00.083Z,67.83
2018-09-04T07:38:28.834Z,66.06
2018-09-04T07:40:57.500Z,66.04
2018-09-04T07:43:26.370Z,66.55
2018-09-04T07:45:55.094Z,66.20
2018-09-04T07:48:24.719Z,65.73
2018-09-04T07:50:53.599Z,64.86
2018-09-04T07:53:22.211Z,63.41
2018-09-04T07:55:50.866Z,61.34
2018-09-04T07:58:20.314Z,61.11
2018-09-04T08:00:49.080Z,61.63
2018-09-04T08:03:17.891Z,60.14
2018-09-04T08:05:46.558Z,59.33
2018-09-04T08:08:15.631Z,59.12
2018-09-04T08:10:45.378Z,59.10
2018-09-04T08:13:14.063Z,60.32
2018-09-04T08:15:43.485Z,58.39
2018-09-04T08:18:12.225Z,57.45
2018-09-04T08:20:41.605Z,57.50
2018-09-04T08:23:10.185Z,57.99
2018-09-04T08:25:38.897Z,57.23
2018-09-04T08:28:07.959Z,56.90
2018-09-04T08:30:36.541Z,57.02
2018-09-04T08:33:05.369Z,55.92
2018-09-04T08:35:33.926Z,55.55
2018-09-04T08:38:02.592Z,55.58
2018-09-04T08:40:33.024Z,55.77
2018-09-04T08:43:02.148Z,56.07
2018-09-04T08:45:31.864Z,55.89
2018-09-04T08:48:01.937Z,55.22
2018-09-04T08:50:32.436Z,55.30
2018-09-04T08:53:01.412Z,56.33
2018-09-04T08:55:30.069Z,54.92
2018-09-04T08:57:58.769Z,54.24
2018-09-04T09:00:28.109Z,55.28
2018-09-04T09:02:56.755Z,55.46
2018-09-04T09:05:25.743Z,55.00
2018-09-04T09:07:54.678Z,53.68
2018-09-04T09:10:23.373Z,53.73
2018-09-04T09:12:52.342Z,55.03
2018-09-04T09:15:21.035Z,55.77
2018-09-04T09:17:51.022Z,55.01
2018-09-04T09:20:20.465Z,53.81
2018-09-04T09:22:49.952Z,55.81
2018-09-04T09:25:19.300Z,54.93
2018-09-04T09:27:48.386Z,54.77
2018-09-04T09:30:17.074Z,54.52
2018-09-04T09:32:45.802Z,56.04
2018-09-04T09:35:16.250Z,54.88
2018-09-04T09:37:44.958Z,54.68
2018-09-04T09:40:13.720Z,54.81
2018-09-04T09:42:44.331Z,53.89
2018-09-04T09:45:13.685Z,52.56
2018-09-04T09:47:47.525Z,51.56
2018-09-04T09:50:16.272Z,51.44
2018-09-04T09:52:45.599Z,48.11
2018-09-04T09:55:15.897Z,50.13
2018-09-04T09:57:44.651Z,49.14
2018-09-04T10:00:18.814Z,50.06
2018-09-04T10:02:55.597Z,50.12
2018-09-04T10:05:24.305Z,49.05
2018-09-04T10:07:53.292Z,49.99
2018-09-04T10:10:22.144Z,47.24
2018-09-04T10:12:50.917Z,47.49
2018-09-04T10:15:19.678Z,47.56
2018-09-04T10:17:48.436Z,46.36
2018-09-04T10:20:17.323Z,46.31
2018-09-04T10:22:46.013Z,47.13
2018-09-04T10:25:15.393Z,46.46
2018-09-04T10:27:44.157Z,46.24
2018-09-04T10:30:14.081Z,45.99
2018-09-04T10:32:57.253Z,44.06
2018-09-04T10:35:26.031Z,45.81
2018-09-04T10:37:54.765Z,44.25
2018-09-04T10:40:28.693Z,44.77
2018-09-04T10:42:57.322Z,44.32
2018-09-04T10:45:31.249Z,44.42
2018-09-04T10:47:59.997Z,43.53
2018-09-04T10:50:29.349Z,44.87
2018-09-04T10:52:58.181Z,44.26
2018-09-04T10:55:26.919Z,45.72
2018-09-04T10:57:55.800Z,45.52
2018-09-04T11:00:24.463Z,44.65
2018-09-04T11:02:53.385Z,43.32
2018-09-04T11:05:22.213Z,42.47
2018-09-04T11:07:50.934Z,43.05
2018-09-04T11:10:27.277Z,44.87
2018-09-04T11:12:56.093Z,44.26
2018-09-04T11:15:24.938Z,42.53
2018-09-04T11:17:53.961Z,42.30
2018-09-04T11:20:22.653Z,41.84
2018-09-04T11:22:51.613Z,42.05
2018-09-04T11:25:20.361Z,39.83
2018-09-04T11:27:50.086Z,37.96
2018-09-04T11:30:18.930Z,36.13
2018-09-04T11:32:48.123Z,34.83
2018-09-04T11:35:16.795Z,34.58
2018-09-04T11:37:45.506Z,34.13
2018-09-04T11:40:14.248Z,35.55
2018-09-04T11:45:16.894Z,35.19
2018-09-04T11:47:45.626Z,36.49
2018-09-04T11:50:14.304Z,36.75
2018-09-04T11:52:43.335Z,37.53
2018-09-04T11:55:12.369Z,35.54
2018-09-04T11:57:42.431Z,33.83
2018-09-04T12:00:16.058Z,32.97
2018-09-04T12:02:45.439Z,31.28
2018-09-04T12:05:14.145Z,30.21
2018-09-04T12:07:42.840Z,30.03
2018-09-04T12:10:11.628Z,30.55
2018-09-04T12:12:40.669Z,33.58
2018-09-04T12:15:09.195Z,34.68
2018-09-04T12:17:37.905Z,33.87
2018-09-04T12:20:14.400Z,33.32
2018-09-04T12:22:42.992Z,34.06
2018-09-04T12:25:11.626Z,35.11
2018-09-04T12:27:40.338Z,34.96
2018-09-04T12:30:09.079Z,33.97
2018-09-04T12:32:38.724Z,33.18
2018-09-04T12:35:08.453Z,32.24
2018-09-04T12:37:37.261Z,32.31
2018-09-04T12:40:06.156Z,30.50
2018-09-04T12:42:35.479Z,28.68
2018-09-04T12:45:04.180Z,28.75
2018-09-04T12:47:32.808Z,28.04
2018-09-04T12:50:01.704Z,27.89
2018-09-04T12:52:30.345Z,27.77
2018-09-04T12:54:59.057Z,28.99
2018-09-04T12:57:27.810Z,28.67
2018-09-04T12:59:58.727Z,28.47
2018-09-04T13:02:27.538Z,28.23
2018-09-04T13:04:56.118Z,30.85
2018-09-04T13:07:24.780Z,28.61
2018-09-04T13:09:53.712Z,29.24
2018-09-04T13:12:22.477Z,28.89
2018-09-04T13:14:51.507Z,30.66
2018-09-04T13:17:20.157Z,30.77
2018-09-04T13:19:48.837Z,31.89
2018-09-04T13:22:17.458Z,32.42
2018-09-04T13:24:46.326Z,30.13
2018-09-04T13:27:15.179Z,29.33
2018-09-04T13:29:43.737Z,29.91
2018-09-04T13:32:12.423Z,29.03
2018-09-04T13:34:41.225Z,27.54
2018-09-04T13:37:10.636Z,28.31
2018-09-04T13:39:39.236Z,27.45
2018-09-04T13:42:08.599Z,27.35
2018-09-04T13:44:37.302Z,27.75
2018-09-04T13:47:06.918Z,27.36
2018-09-04T13:49:36.739Z,26.97
2018-09-04T13:52:05.882Z,26.37
2018-09-04T13:54:34.514Z,26.35
2018-09-04T13:57:03.265Z,25.98
2018-09-04T13:59:31.888Z,26.94
2018-09-04T14:02:00.482Z,25.97
2018-09-04T14:04:29.130Z,26.12
2018-09-04T14:06:57.956Z,27.96
2018-09-04T14:09:26.876Z,27.05
2018-09-04T14:11:56.089Z,27.21
2018-09-04T14:14:26.541Z,27.08
2018-09-04T14:16:55.623Z,25.39
2018-09-04T14:19:25.629Z,26.23
2018-09-04T14:21:54.282Z,27.04
2018-09-04T14:24:22.986Z,26.94
2018-09-04T14:26:51.681Z,26.36
2018-09-04T14:29:53.163Z,27.26
2018-09-04T14:31:52.911Z,26.12
2018-09-04T14:34:21.432Z,26.38
2018-09-04T14:36:50.329Z,25.07
2018-09-04T14:39:18.803Z,26.52
2018-09-04T14:41:48.115Z,26.00
2018-09-04T14:44:17.816Z,26.07
2018-09-04T14:46:47.728Z,26.71
2018-09-04T14:49:16.655Z,25.93
2018-09-04T14:51:45.425Z,26.99
2018-09-04T14:54:14.176Z,27.31
2018-09-04T14:56:44.472Z,27.18
2018-09-04T14:59:13.111Z,26.83
2018-09-04T15:01:43.276Z,27.63
2018-09-04T15:04:12.018Z,27.84
2018-09-04T15:06:41.400Z,27.69
2018-09-04T15:09:13.110Z,29.45
2018-09-04T15:11:41.769Z,28.25
2018-09-04T15:14:10.306Z,29.80
2018-09-04T15:16:39.423Z,29.89
2018-09-04T15:19:08.332Z,29.54
2018-09-04T15:21:37.988Z,30.02
2018-09-04T15:24:07.867Z,31.84
2018-09-04T15:26:36.971Z,30.73
2018-09-04T15:29:05.553Z,30.77
2018-09-04T15:31:35.320Z,30.57
2018-09-04T15:34:03.929Z,30.19
2018-09-04T15:36:32.625Z,31.57
2018-09-04T15:39:01.434Z,31.30
2018-09-04T15:41:30.064Z,31.00
2018-09-04T15:43:59.380Z,31.66
2018-09-04T15:46:28.204Z,31.36
2018-09-04T15:49:02.120Z,30.45
2018-09-04T15:51:39.410Z,30.42
2018-09-04T15:54:08.252Z,31.06
2018-09-04T15:56:36.915Z,30.98
2018-09-04T15:59:05.529Z,32.39
2018-09-04T16:01:35.117Z,32.03
2018-09-04T16:04:04.015Z,31.97
2018-09-04T16:06:32.615Z,32.65
2018-09-04T16:09:01.260Z,32.11
2018-09-04T16:11:29.971Z,32.89
2018-09-04T16:13:58.712Z,33.61
2018-09-04T16:16:27.280Z,32.67
2018-09-04T16:18:55.844Z,33.58
2018-09-04T16:21:24.550Z,33.65
2018-09-04T16:23:53.165Z,33.19
2018-09-04T16:26:23.562Z,32.64
2018-09-04T16:28:53.355Z,32.87
2018-09-04T16:31:22.120Z,32.98
2018-09-04T16:33:50.820Z,34.46
2018-09-04T16:36:20.413Z,34.80
2018-09-04T16:38:50.744Z,35.90
2018-09-04T16:41:19.360Z,36.39
2018-09-04T16:43:48.119Z,36.36
2018-09-04T16:46:16.829Z,37.08
2018-09-04T16:48:45.577Z,38.34
2018-09-04T16:51:14.366Z,38.52
2018-09-04T16:53:43.106Z,39.41
2018-09-04T16:56:11.773Z,40.46
2018-09-04T16:58:40.468Z,41.11
2018-09-04T17:01:10.329Z,42.17
2018-09-04T17:03:40.057Z,42.39
2018-09-04T17:06:08.652Z,43.03
2018-09-04T17:08:37.398Z,43.72
2018-09-04T17:11:06.233Z,44.08
2018-09-04T17:13:34.919Z,45.07
2018-09-04T17:16:03.750Z,45.35
2018-09-04T17:18:32.487Z,46.58
2018-09-04T17:21:01.122Z,46.64
2018-09-04T17:23:29.991Z,46.69
2018-09-04T17:25:58.577Z,46.83
2018-09-04T17:28:28.203Z,48.11
2018-09-04T17:30:56.835Z,47.89
2018-09-04T17:33:26.460Z,48.77
2018-09-04T17:35:55.307Z,49.29
2018-09-04T17:38:24.067Z,49.23
2018-09-04T17:40:54.671Z,49.66
2018-09-04T17:43:26.079Z,50.67
2018-09-04T17:45:54.830Z,51.10
2018-09-04T17:48:23.665Z,50.74
2018-09-04T17:50:53.275Z,50.99
2018-09-04T17:53:21.796Z,51.07
2018-09-04T17:55:50.419Z,51.51
2018-09-04T17:58:19.179Z,51.74
2018-09-04T18:00:48.994Z,52.12
2018-09-04T18:03:17.675Z,52.34
2018-09-04T18:05:46.406Z,53.20
2018-09-04T18:08:15.073Z,53.05
2018-09-04T18:10:44.052Z,53.70
2018-09-04T18:13:12.863Z,54.17
2018-09-04T18:15:41.701Z,54.31
2018-09-04T18:18:10.401Z,54.91
2018-09-04T18:20:39.024Z,55.22
2018-09-04T18:23:07.712Z,55.39
2018-09-04T18:25:36.383Z,56.26
2018-09-04T18:28:05.271Z,56.51
2018-09-04T18:30:34.219Z,57.09
2018-09-04T18:33:03.884Z,57.41
2018-09-04T18:35:32.821Z,57.68
2018-09-04T18:38:01.727Z,57.91
2018-09-04T18:40:30.471Z,57.49
2018-09-04T18:42:59.197Z,58.54
2018-09-04T18:45:46.583Z,58.07
2018-09-04T18:48:15.665Z,58.55
2018-09-04T18:50:48.178Z,59.27
2018-09-04T18:53:16.945Z,59.93
2018-09-04T18:55:46.120Z,59.62
2018-09-04T18:58:16.838Z,59.67
2018-09-04T19:00:46.042Z,60.46
2018-09-04T19:03:14.968Z,60.59
2018-09-04T19:05:44.809Z,60.74
2018-09-04T19:08:13.609Z,60.86
2018-09-04T19:10:45.936Z,60.96
2018-09-04T19:13:15.851Z,60.83
2018-09-04T19:15:45.776Z,61.34
2018-09-04T19:18:15.576Z,61.64
2018-09-04T19:20:44.617Z,61.85
2018-09-04T19:23:13.536Z,62.41
2018-09-04T19:25:42.866Z,62.56
2018-09-04T19:28:12.620Z,63.05
2018-09-04T19:30:41.636Z,63.92
2018-09-04T19:33:10.399Z,64.28
2018-09-04T19:35:40.517Z,63.85
2018-09-04T19:38:09.346Z,64.30
2018-09-04T19:40:39.363Z,64.41
2018-09-04T19:43:08.871Z,64.92
2018-09-04T19:45:38.792Z,64.29
2018-09-04T19:48:08.395Z,64.59
2018-09-04T19:50:37.294Z,64.40
2018-09-04T19:53:06.075Z,64.43
2018-09-04T19:55:34.819Z,64.72
2018-09-04T19:58:03.533Z,64.80
2018-09-04T20:00:32.323Z,64.92
2018-09-04T20:03:01.153Z,64.47
2018-09-04T20:05:29.952Z,64.74
2018-09-04T20:07:58.834Z,64.89
2018-09-04T20:10:27.460Z,65.11
2018-09-04T20:12:56.177Z,65.09
2018-09-04T20:15:25.380Z,64.59
2018-09-04T20:17:55.916Z,65.73
2018-09-04T20:20:24.564Z,65.45
2018-09-04T20:22:53.792Z,66.18
2018-09-04T20:25:22.943Z,66.05
2018-09-04T20:27:51.796Z,65.73
2018-09-04T20:30:20.493Z,66.18
2018-09-04T20:32:49.209Z,66.46
2018-09-04T20:35:18.072Z,66.77
2018-09-04T20:37:47.209Z,66.46
2018-09-04T20:40:15.988Z,66.91
2018-09-04T20:42:45.364Z,66.89
2018-09-04T20:45:15.924Z,67.37
2018-09-04T20:47:45.421Z,67.44
2018-09-04T20:50:14.041Z,67.44
2018-09-04T20:52:42.834Z,67.90
2018-09-04T20:55:11.560Z,68.60
2018-09-04T20:57:40.221Z,68.63
2018-09-04T21:00:26.328Z,69.19
2018-09-04T21:03:06.093Z,70.01
2018-09-04T21:05:45.949Z,70.10
2018-09-04T21:08:21.962Z,70.36
2018-09-04T21:10:51.510Z,70.55
2018-09-04T21:13:22.208Z,71.00
2018-09-04T21:15:51.105Z,71.49
2018-09-04T21:18:20.692Z,71.19
2018-09-04T21:20:49.928Z,71.52
2018-09-04T21:23:18.662Z,71.88
2018-09-04T21:25:47.323Z,72.26
2018-09-04T21:28:16.127Z,72.08
2018-09-04T21:30:44.723Z,72.49
2018-09-04T21:33:13.443Z,72.69
2018-09-04T21:35:42.215Z,73.21
2018-09-04T21:38:11.157Z,73.29
2018-09-04T21:40:39.879Z,73.63
2018-09-04T21:43:08.544Z,74.06
2018-09-04T21:45:37.427Z,73.82
2018-09-04T21:48:06.236Z,74.69
2018-09-04T21:50:35.013Z,74.77
2018-09-04T21:53:03.624Z,74.76
2018-09-04T21:55:32.300Z,74.60
2018-09-04T21:58:01.022Z,75.08
2018-09-04T22:00:30.124Z,75.34
2018-09-04T22:02:59.257Z,76.18
2018-09-04T22:05:27.893Z,76.64
2018-09-04T22:07:57.818Z,77.09
2018-09-04T22:10:27.516Z,77.28
2018-09-04T22:12:56.780Z,76.93
2018-09-04T22:15:25.493Z,77.01
2018-09-04T22:17:54.250Z,76.76
2018-09-04T22:20:22.916Z,76.65
2018-09-04T22:22:51.532Z,76.62
2018-09-04T22:25:20.180Z,76.50
2018-09-04T22:27:48.859Z,76.81
2018-09-04T22:30:17.692Z,76.91
2018-09-04T22:32:46.575Z,76.28
2018-09-04T22:35:15.263Z,76.57
2018-09-04T22:37:44.190Z,76.49
2018-09-04T22:40:12.951Z,76.57
2018-09-04T22:42:42.215Z,76.56
2018-09-04T22:45:11.253Z,76.41
2018-09-04T22:47:41.176Z,76.96
2018-09-04T22:50:15.042Z,76.70
2018-09-04T22:52:43.588Z,76.59
2018-09-04T22:55:13.580Z,76.48
2018-09-04T22:57:43.530Z,76.91
2018-09-04T23:00:13.695Z,76.90
2018-09-04T23:02:42.641Z,77.30
2018-09-04T23:05:12.776Z,77.55
2018-09-04T23:07:41.428Z,77.45
2018-09-04T23:10:10.129Z,77.64
2018-09-04T23:12:38.934Z,77.33
2018-09-04T23:15:07.637Z,77.52
2018-09-04T23:17:36.275Z,77.33
2018-09-04T23:20:04.999Z,77.95
2018-09-04T23:22:33.764Z,78.28
2018-09-04T23:25:02.787Z,78.44
2018-09-04T23:27:31.565Z,78.43
2018-09-04T23:30:00.256Z,78.83
2018-09-04T23:32:29.069Z,79.16
2018-09-04T23:34:57.988Z,79.12
2018-09-04T23:37:26.705Z,79.23
2018-09-04T23:39:55.256Z,80.04
2018-09-04T23:42:24.172Z,80.03
2018-09-04T23:44:52.684Z,80.19
2018-09-04T23:47:21.397Z,80.75
2018-09-04T23:49:50.152Z,80.73
2018-09-04T23:52:18.895Z,80.91
2018-09-04T23:54:47.676Z,81.58
2018-09-04T23:57:16.280Z,81.59
2018-09-04T23:59:45.173Z,82.27
